Time;durP1;ratioP1;P1;durP2;ratioP2;P2;SDS_P1;SDS_P2;PMS_P1;PMS_P2;Temp;Humidity;BMP_temperature;BMP_pressure;BME280_temperature;BME280_humidity;BME280_pressure;Samples;Min_cycle;Max_cycle;Signal;HPM_P1;HPM_P2
2022/03/09 00:00:47;;;;;;;31.33;8.57;;;;;;;;;;5051615;28;20470;-64
2022/03/09 00:03:13;;;;;;;32.40;8.30;;;;;;;;;;5054560;28;20039;-66
2022/03/09 00:05:40;;;;;;;27.63;7.55;;;;;;;;;;5050104;28;20017;-65
2022/03/09 00:08:06;;;;;;;35.28;8.40;;;;;;;;;;5054104;28;20029;-60
2022/03/09 00:10:32;;;;;;;36.97;8.30;;;;;;;;;;5054631;28;20449;-59
2022/03/09 00:12:58;;;;;;;40.60;8.10;;;;;;;;;;5071887;28;20032;-63
2022/03/09 00:15:24;;;;;;;31.83;7.75;;;;;;;;;;5051573;28;20074;-66
2022/03/09 00:17:50;;;;;;;32.08;7.63;;;;;;;;;;5050592;28;20036;-63
2022/03/09 00:20:16;;;;;;;36.22;8.25;;;;;;;;;;5059375;28;20025;-64
2022/03/09 00:22:42;;;;;;;37.72;11.60;;;;;;;;;;5068518;28;20035;-61
2022/03/09 00:25:08;;;;;;;33.00;10.07;;;;;;;;;;5072098;28;20021;-61
2022/03/09 00:27:35;;;;;;;37.58;16.30;;;;;;;;;;5073379;28;20029;-63
2022/03/09 00:30:01;;;;;;;31.00;12.38;;;;;;;;;;5071366;28;20028;-66
2022/03/09 00:32:28;;;;;;;89.13;52.55;;;;;;;;;;5065563;28;20033;-65
2022/03/09 00:34:54;;;;;;;37.72;18.02;;;;;;;;;;5052571;28;20078;-64
2022/03/09 00:37:20;;;;;;;67.72;34.70;;;;;;;;;;5052894;28;20079;-61
2022/03/09 00:39:46;;;;;;;41.92;17.42;;;;;;;;;;5053185;28;20047;-60
2022/03/09 00:42:12;;;;;;;32.35;13.77;;;;;;;;;;5052299;28;20116;-62
2022/03/09 00:44:38;;;;;;;32.70;12.48;;;;;;;;;;5053049;28;20445;-63
2022/03/09 00:47:04;;;;;;;30.83;10.27;;;;;;;;;;5052252;28;20060;-63
2022/03/09 00:49:30;;;;;;;29.40;9.50;;;;;;;;;;5052792;28;20033;-65
2022/03/09 00:51:56;;;;;;;45.78;10.45;;;;;;;;;;5052841;28;20024;-62
2022/03/09 00:54:22;;;;;;;63.08;13.57;;;;;;;;;;5052945;28;20021;-62
2022/03/09 00:56:48;;;;;;;61.63;10.73;;;;;;;;;;5053028;28;20496;-61
2022/03/09 00:59:14;;;;;;;50.95;9.70;;;;;;;;;;5052986;28;20056;-64
2022/03/09 01:01:40;;;;;;;60.92;9.57;;;;;;;;;;5053327;28;20411;-58
2022/03/09 01:04:06;;;;;;;58.58;9.32;;;;;;;;;;5053659;28;20051;-61
2022/03/09 01:06:32;;;;;;;50.75;8.27;;;;;;;;;;5073114;28;20103;-72
2022/03/09 01:08:59;;;;;;;45.47;8.15;;;;;;;;;;5072408;28;20104;-63
2022/03/09 01:11:25;;;;;;;53.97;17.20;;;;;;;;;;5072966;28;20473;-62
2022/03/09 01:13:52;;;;;;;47.90;15.60;;;;;;;;;;5072095;28;20036;-63
2022/03/09 01:16:18;;;;;;;48.50;13.00;;;;;;;;;;5072758;28;20025;-63
2022/03/09 01:18:43;;;;;;;37.92;12.07;;;;;;;;;;5052241;28;20512;-64
2022/03/09 01:21:09;;;;;;;147.32;69.45;;;;;;;;;;5053393;28;20032;-62
2022/03/09 01:23:35;;;;;;;90.47;34.53;;;;;;;;;;5058554;28;20051;-65
2022/03/09 01:26:02;;;;;;;55.65;18.55;;;;;;;;;;5053718;28;20047;-61
2022/03/09 01:28:27;;;;;;;33.80;10.63;;;;;;;;;;5050298;28;20028;-66
2022/03/09 01:30:53;;;;;;;42.17;12.23;;;;;;;;;;5052988;28;20025;-59
2022/03/09 01:33:19;;;;;;;41.88;7.45;;;;;;;;;;5057275;28;20092;-63
2022/03/09 01:35:46;;;;;;;30.77;6.75;;;;;;;;;;5061733;28;20021;-62
2022/03/09 01:38:12;;;;;;;34.75;7.05;;;;;;;;;;5057579;28;20025;-60
2022/03/09 01:40:38;;;;;;;24.42;6.00;;;;;;;;;;5056383;28;20477;-62
2022/03/09 01:43:04;;;;;;;27.02;6.47;;;;;;;;;;5050761;28;20029;-62
2022/03/09 01:45:31;;;;;;;30.40;10.20;;;;;;;;;;5052107;28;20053;-60
2022/03/09 01:47:57;;;;;;;101.05;46.33;;;;;;;;;;5056660;28;20047;-61
2022/03/09 01:50:23;;;;;;;39.35;12.63;;;;;;;;;;5058762;28;20493;-64
2022/03/09 01:52:49;;;;;;;43.67;14.27;;;;;;;;;;5059061;28;20100;-61
2022/03/09 01:55:15;;;;;;;26.70;7.32;;;;;;;;;;5058816;28;20029;-61
2022/03/09 01:57:41;;;;;;;22.52;6.60;;;;;;;;;;5058957;28;20025;-62
2022/03/09 02:00:07;;;;;;;24.70;5.97;;;;;;;;;;5059889;28;20072;-64
2022/03/09 02:02:33;;;;;;;21.00;5.78;;;;;;;;;;5058717;28;20045;-60
2022/03/09 02:04:59;;;;;;;23.13;5.40;;;;;;;;;;5061491;28;20029;-60
2022/03/09 02:10:11;;;;;;;19.65;5.43;;;;;;;;;;5078887;28;20039;-65
2022/03/09 02:12:38;;;;;;;20.83;5.50;;;;;;;;;;5078618;28;20031;-61
2022/03/09 02:15:04;;;;;;;23.15;5.25;;;;;;;;;;5078941;28;20027;-66
2022/03/09 02:17:30;;;;;;;17.83;4.95;;;;;;;;;;5078556;28;20115;-60
2022/03/09 02:19:57;;;;;;;18.05;5.10;;;;;;;;;;5079040;28;20035;-61
2022/03/09 02:22:33;;;;;;;16.50;5.38;;;;;;;;;;5078474;28;20040;-60
2022/03/09 02:25:00;;;;;;;15.80;5.10;;;;;;;;;;5060482;28;20372;-61
2022/03/09 02:27:26;;;;;;;20.35;4.60;;;;;;;;;;5079427;28;20028;-61
2022/03/09 02:29:53;;;;;;;17.40;4.88;;;;;;;;;;5078325;28;20020;-65
2022/03/09 02:32:19;;;;;;;16.25;4.85;;;;;;;;;;5079521;28;20377;-60
2022/03/09 02:34:45;;;;;;;20.65;4.88;;;;;;;;;;5078466;28;20033;-59
2022/03/09 02:37:12;;;;;;;17.70;4.78;;;;;;;;;;5079397;28;20366;-60
2022/03/09 02:39:38;;;;;;;18.75;5.07;;;;;;;;;;5078688;28;20020;-64
2022/03/09 02:42:04;;;;;;;15.68;4.40;;;;;;;;;;5078294;28;20490;-65
2022/03/09 02:44:31;;;;;;;14.90;4.05;;;;;;;;;;5079033;28;20029;-60
2022/03/09 02:46:57;;;;;;;18.05;4.50;;;;;;;;;;5079003;28;20104;-61
2022/03/09 02:49:23;;;;;;;13.70;4.45;;;;;;;;;;5078630;28;20036;-62
2022/03/09 02:51:49;;;;;;;16.92;4.30;;;;;;;;;;5078263;28;20028;-59
2022/03/09 02:54:15;;;;;;;16.38;4.35;;;;;;;;;;5078686;28;20029;-59
2022/03/09 02:56:41;;;;;;;15.55;4.47;;;;;;;;;;5078999;28;20103;-59
2022/03/09 02:59:07;;;;;;;15.30;4.40;;;;;;;;;;5074626;28;20020;-62
2022/03/09 03:01:34;;;;;;;15.10;4.68;;;;;;;;;;5075793;28;20044;-60
2022/03/09 03:04:00;;;;;;;15.63;4.40;;;;;;;;;;5075443;28;20062;-60
2022/03/09 03:06:26;;;;;;;14.88;4.43;;;;;;;;;;5074475;28;20028;-61
2022/03/09 03:08:52;;;;;;;17.88;4.75;;;;;;;;;;5074749;28;20090;-60
2022/03/09 03:11:18;;;;;;;15.02;4.57;;;;;;;;;;5075363;28;20473;-62
2022/03/09 03:13:45;;;;;;;15.25;4.30;;;;;;;;;;5074960;28;20070;-66
2022/03/09 03:16:11;;;;;;;15.25;4.50;;;;;;;;;;5075354;28;20489;-62
2022/03/09 03:18:37;;;;;;;16.35;4.65;;;;;;;;;;5075485;28;20040;-61
2022/03/09 03:21:04;;;;;;;14.88;4.78;;;;;;;;;;5075170;28;20025;-62
2022/03/09 03:23:31;;;;;;;16.33;4.40;;;;;;;;;;5061030;28;20441;-60
2022/03/09 03:25:57;;;;;;;18.48;4.80;;;;;;;;;;5054900;28;20025;-61
2022/03/09 03:28:23;;;;;;;15.15;4.28;;;;;;;;;;5055271;28;20033;-60
2022/03/09 03:30:50;;;;;;;14.50;4.25;;;;;;;;;;5054272;28;20025;-63
2022/03/09 03:33:17;;;;;;;14.52;4.72;;;;;;;;;;5055546;28;20033;-60
2022/03/09 03:35:43;;;;;;;13.95;4.45;;;;;;;;;;5053598;28;20489;-60
2022/03/09 03:38:10;;;;;;;14.70;4.50;;;;;;;;;;5054662;28;20028;-63
2022/03/09 03:40:36;;;;;;;13.43;4.45;;;;;;;;;;5054465;28;20025;-62
2022/03/09 03:43:02;;;;;;;14.10;4.32;;;;;;;;;;5054424;28;20040;-63
2022/03/09 03:45:28;;;;;;;13.82;4.00;;;;;;;;;;5054762;28;20079;-64
2022/03/09 03:47:54;;;;;;;14.45;4.43;;;;;;;;;;5054462;28;20025;-64
2022/03/09 03:50:20;;;;;;;13.30;4.07;;;;;;;;;;5054563;28;20039;-63
2022/03/09 03:52:46;;;;;;;10.57;3.78;;;;;;;;;;5054236;28;20064;-61
2022/03/09 03:55:13;;;;;;;16.05;4.60;;;;;;;;;;5072193;28;20056;-61
2022/03/09 03:57:39;;;;;;;12.13;4.00;;;;;;;;;;5074216;28;20059;-66
2022/03/09 04:00:05;;;;;;;14.45;4.45;;;;;;;;;;5074604;28;20043;-66
2022/03/09 04:02:31;;;;;;;13.73;4.10;;;;;;;;;;5073898;28;20036;-65
2022/03/09 04:04:57;;;;;;;14.10;4.50;;;;;;;;;;5074511;28;20377;-59
2022/03/09 04:07:23;;;;;;;12.02;3.92;;;;;;;;;;5074138;28;20099;-60
2022/03/09 04:09:49;;;;;;;14.38;4.28;;;;;;;;;;5073325;28;20029;-60
2022/03/09 04:12:16;;;;;;;15.32;4.38;;;;;;;;;;5073497;28;20028;-60
2022/03/09 04:14:41;;;;;;;12.65;4.00;;;;;;;;;;5073743;28;20051;-61
2022/03/09 04:17:08;;;;;;;14.13;4.50;;;;;;;;;;5073989;28;20094;-61
2022/03/09 04:19:33;;;;;;;13.30;4.15;;;;;;;;;;5073592;28;20079;-61
2022/03/09 04:21:59;;;;;;;14.32;4.03;;;;;;;;;;5073705;28;20044;-59
2022/03/09 04:24:26;;;;;;;15.00;4.43;;;;;;;;;;5073164;28;20052;-61
2022/03/09 04:26:52;;;;;;;14.55;4.60;;;;;;;;;;5073646;28;20054;-63
2022/03/09 04:29:19;;;;;;;16.73;4.90;;;;;;;;;;5073211;28;20099;-67
2022/03/09 04:31:45;;;;;;;14.18;4.80;;;;;;;;;;5074254;28;20074;-62
2022/03/09 04:34:11;;;;;;;17.08;5.07;;;;;;;;;;5073204;28;20025;-68
2022/03/09 04:36:37;;;;;;;19.48;4.85;;;;;;;;;;5073923;28;20032;-66
2022/03/09 04:39:03;;;;;;;18.45;5.60;;;;;;;;;;5055088;28;20430;-62
2022/03/09 04:41:29;;;;;;;17.67;5.45;;;;;;;;;;5073520;28;20033;-61
2022/03/09 04:43:55;;;;;;;16.70;5.40;;;;;;;;;;5073279;28;20036;-62
2022/03/09 04:46:21;;;;;;;17.63;5.57;;;;;;;;;;5073268;28;20028;-61
2022/03/09 04:48:49;;;;;;;16.30;5.22;;;;;;;;;;5072997;28;20040;-61
2022/03/09 04:51:15;;;;;;;17.65;5.50;;;;;;;;;;5072339;28;20020;-63
2022/03/09 04:53:41;;;;;;;16.60;5.20;;;;;;;;;;5073174;28;20031;-60
2022/03/09 04:56:07;;;;;;;18.15;5.88;;;;;;;;;;5072643;28;20029;-60
2022/03/09 04:58:33;;;;;;;15.52;5.22;;;;;;;;;;5073318;28;20025;-62
2022/03/09 05:00:59;;;;;;;16.90;6.20;;;;;;;;;;5072189;28;20470;-62
2022/03/09 05:03:25;;;;;;;18.83;6.15;;;;;;;;;;5072649;28;20020;-60
2022/03/09 05:05:51;;;;;;;15.85;5.47;;;;;;;;;;5072333;28;20108;-60
2022/03/09 05:08:17;;;;;;;16.40;5.57;;;;;;;;;;5073077;28;20031;-60
2022/03/09 05:10:43;;;;;;;17.13;5.65;;;;;;;;;;5072417;28;20035;-63
2022/03/09 05:13:09;;;;;;;19.35;6.20;;;;;;;;;;5073251;28;20020;-66
2022/03/09 05:15:35;;;;;;;17.17;6.20;;;;;;;;;;5072874;28;20043;-64
2022/03/09 05:18:01;;;;;;;18.30;6.38;;;;;;;;;;5072782;28;20115;-64
2022/03/09 05:20:27;;;;;;;17.65;5.75;;;;;;;;;;5072474;28;20452;-66
2022/03/09 05:22:53;;;;;;;17.73;6.20;;;;;;;;;;5072026;28;20044;-63
2022/03/09 05:25:19;;;;;;;19.20;6.38;;;;;;;;;;5073320;28;20385;-60
2022/03/09 05:27:46;;;;;;;18.25;6.15;;;;;;;;;;5072588;28;20032;-60
2022/03/09 05:30:12;;;;;;;18.10;6.25;;;;;;;;;;5072962;28;20445;-63
2022/03/09 05:32:39;;;;;;;17.23;6.15;;;;;;;;;;5072024;28;20099;-59
2022/03/09 05:35:05;;;;;;;18.25;6.30;;;;;;;;;;5072812;28;20024;-69
2022/03/09 05:37:38;;;;;;;17.08;6.13;;;;;;;;;;5072158;28;20024;-69
2022/03/09 05:40:04;;;;;;;17.30;6.20;;;;;;;;;;5073066;28;20059;-60
2022/03/09 05:42:30;;;;;;;19.20;6.60;;;;;;;;;;5053581;28;20036;-60
2022/03/09 05:44:56;;;;;;;19.35;6.75;;;;;;;;;;5072935;28;20150;-70
2022/03/09 05:47:22;;;;;;;17.92;6.85;;;;;;;;;;5072206;28;20032;-67
2022/03/09 05:49:48;;;;;;;17.63;6.13;;;;;;;;;;5072662;28;20112;-63
2022/03/09 05:52:14;;;;;;;17.60;6.30;;;;;;;;;;5071326;28;20031;-61
2022/03/09 05:54:40;;;;;;;20.02;6.32;;;;;;;;;;5072537;28;20028;-61
2022/03/09 05:57:06;;;;;;;18.95;6.50;;;;;;;;;;5072524;28;20083;-61
2022/03/09 05:59:32;;;;;;;21.05;6.88;;;;;;;;;;5072464;28;20031;-60
2022/03/09 06:01:58;;;;;;;19.15;6.20;;;;;;;;;;5072073;28;20032;-60
2022/03/09 06:04:24;;;;;;;18.05;6.50;;;;;;;;;;5072027;28;20024;-60
2022/03/09 06:06:50;;;;;;;19.85;6.95;;;;;;;;;;5072886;28;20060;-59
2022/03/09 06:09:16;;;;;;;19.15;6.65;;;;;;;;;;5071488;28;20024;-60
2022/03/09 06:11:42;;;;;;;18.65;6.50;;;;;;;;;;5072640;28;20024;-60
2022/03/09 06:14:09;;;;;;;19.10;6.65;;;;;;;;;;5072230;28;20024;-61
2022/03/09 06:16:36;;;;;;;20.67;6.65;;;;;;;;;;5071662;28;20036;-65
2022/03/09 06:19:02;;;;;;;18.63;6.65;;;;;;;;;;5072433;28;20405;-66
2022/03/09 06:21:28;;;;;;;19.05;6.80;;;;;;;;;;5071317;28;20032;-60
2022/03/09 06:23:54;;;;;;;20.10;7.22;;;;;;;;;;5072276;28;20428;-61
2022/03/09 06:26:20;;;;;;;18.65;6.90;;;;;;;;;;5072396;28;20073;-60
2022/03/09 06:28:46;;;;;;;20.38;6.97;;;;;;;;;;5072062;28;20033;-61
2022/03/09 06:31:12;;;;;;;18.83;6.82;;;;;;;;;;5071868;28;20016;-62
2022/03/09 06:33:38;;;;;;;19.55;7.10;;;;;;;;;;5072901;28;20150;-60
2022/03/09 06:36:06;;;;;;;18.67;6.90;;;;;;;;;;5075766;28;20021;-60
2022/03/09 06:38:32;;;;;;;20.20;7.25;;;;;;;;;;5075347;28;20118;-62
2022/03/09 06:40:58;;;;;;;19.00;6.88;;;;;;;;;;5075702;28;20473;-61
2022/03/09 06:43:24;;;;;;;19.60;7.25;;;;;;;;;;5076047;28;20044;-62
2022/03/09 06:45:50;;;;;;;20.48;7.45;;;;;;;;;;5074806;28;20465;-62
2022/03/09 06:48:16;;;;;;;21.67;6.70;;;;;;;;;;5075827;28;20044;-60
2022/03/09 06:50:43;;;;;;;19.17;7.03;;;;;;;;;;5075924;28;20025;-63
2022/03/09 06:53:09;;;;;;;21.40;7.03;;;;;;;;;;5075026;28;20020;-61
2022/03/09 06:55:35;;;;;;;19.35;7.18;;;;;;;;;;5075711;28;20127;-60
2022/03/09 06:58:01;;;;;;;19.48;6.93;;;;;;;;;;5073193;28;20024;-59
2022/03/09 07:00:27;;;;;;;22.33;7.63;;;;;;;;;;5074975;28;20032;-61
2022/03/09 07:02:55;;;;;;;21.48;7.18;;;;;;;;;;5075655;28;20055;-60
2022/03/09 07:05:21;;;;;;;19.38;7.10;;;;;;;;;;5075619;28;20032;-60
2022/03/09 07:07:48;;;;;;;20.23;7.30;;;;;;;;;;5075523;28;20439;-61
2022/03/09 07:10:14;;;;;;;21.00;7.00;;;;;;;;;;5075536;28;20020;-62
2022/03/09 07:12:41;;;;;;;21.30;7.53;;;;;;;;;;5075333;28;20451;-59
2022/03/09 07:15:07;;;;;;;18.42;6.88;;;;;;;;;;5074511;28;20120;-63
2022/03/09 07:17:34;;;;;;;20.77;7.50;;;;;;;;;;5074242;28;20025;-66
2022/03/09 07:20:00;;;;;;;21.17;7.38;;;;;;;;;;5074969;28;20032;-66
2022/03/09 07:22:26;;;;;;;21.40;7.35;;;;;;;;;;5075163;28;20488;-63
2022/03/09 07:24:52;;;;;;;20.90;7.93;;;;;;;;;;5074578;28;20032;-66
2022/03/09 07:27:18;;;;;;;20.48;7.63;;;;;;;;;;5075218;28;20137;-61
2022/03/09 07:29:44;;;;;;;20.00;7.38;;;;;;;;;;5073663;28;20476;-62
2022/03/09 07:32:14;;;;;;;20.13;7.85;;;;;;;;;;5075380;28;20048;-67
2022/03/09 07:34:40;;;;;;;21.75;7.80;;;;;;;;;;5074974;28;20386;-60
2022/03/09 07:37:06;;;;;;;19.95;7.22;;;;;;;;;;5073576;28;20036;-66
2022/03/09 07:39:32;;;;;;;19.83;7.30;;;;;;;;;;5074735;28;20044;-60
2022/03/09 07:41:58;;;;;;;19.42;7.15;;;;;;;;;;5074583;28;20040;-62
2022/03/09 07:44:25;;;;;;;19.02;7.40;;;;;;;;;;5074599;28;20135;-60
2022/03/09 07:46:51;;;;;;;20.30;7.97;;;;;;;;;;5074200;28;20477;-67
2022/03/09 07:49:18;;;;;;;23.70;8.02;;;;;;;;;;5074541;28;20032;-68
2022/03/09 07:51:44;;;;;;;19.50;7.38;;;;;;;;;;5059765;28;20148;-60
2022/03/09 07:54:10;;;;;;;19.80;7.47;;;;;;;;;;5073473;28;20027;-64
2022/03/09 07:56:36;;;;;;;22.27;7.93;;;;;;;;;;5072410;28;20543;-68
2022/03/09 07:59:06;;;;;;;19.42;7.55;;;;;;;;;;5071654;28;20021;-64
2022/03/09 08:01:32;;;;;;;20.98;7.40;;;;;;;;;;5054847;28;20495;-61
2022/03/09 08:03:58;;;;;;;20.30;7.20;;;;;;;;;;5073586;28;20074;-66
2022/03/09 08:06:24;;;;;;;20.55;7.38;;;;;;;;;;5073717;28;20116;-65
2022/03/09 08:08:50;;;;;;;30.00;8.35;;;;;;;;;;5073874;28;20530;-70
2022/03/09 08:11:16;;;;;;;27.75;7.97;;;;;;;;;;5073926;28;20504;-70
2022/03/09 08:13:42;;;;;;;34.30;8.50;;;;;;;;;;5073604;28;20182;-69
2022/03/09 08:16:08;;;;;;;37.75;8.90;;;;;;;;;;5072808;28;20048;-69
2022/03/09 08:18:34;;;;;;;40.97;9.73;;;;;;;;;;5073724;28;20441;-69
2022/03/09 08:21:00;;;;;;;59.78;10.57;;;;;;;;;;5073608;28;20027;-59
2022/03/09 08:23:27;;;;;;;54.22;10.27;;;;;;;;;;5073706;28;20496;-67
2022/03/09 08:25:53;;;;;;;55.25;10.43;;;;;;;;;;5073200;28;20504;-64
2022/03/09 08:28:19;;;;;;;58.90;9.60;;;;;;;;;;5072955;28;20025;-61
2022/03/09 08:30:45;;;;;;;59.05;9.18;;;;;;;;;;5071730;28;20028;-64
2022/03/09 08:33:12;;;;;;;59.22;9.63;;;;;;;;;;5071560;28;20139;-61
2022/03/09 08:35:38;;;;;;;44.05;9.43;;;;;;;;;;5059916;28;20525;-63
2022/03/09 08:38:04;;;;;;;41.92;8.93;;;;;;;;;;5062500;28;20056;-67
2022/03/09 08:40:31;;;;;;;35.42;8.95;;;;;;;;;;5063613;28;20024;-60
2022/03/09 08:42:57;;;;;;;46.70;9.68;;;;;;;;;;5052030;28;20194;-64
2022/03/09 08:45:23;;;;;;;37.15;11.07;;;;;;;;;;5059492;28;20062;-64
2022/03/09 08:47:49;;;;;;;36.85;10.02;;;;;;;;;;5057178;28;20086;-61
2022/03/09 08:50:16;;;;;;;31.85;10.90;;;;;;;;;;5067362;28;20028;-63
2022/03/09 08:52:42;;;;;;;29.63;9.95;;;;;;;;;;5071379;28;20025;-65
2022/03/09 08:55:08;;;;;;;34.05;10.18;;;;;;;;;;5071885;28;20362;-61
2022/03/09 08:57:34;;;;;;;31.73;9.93;;;;;;;;;;5070729;28;20092;-64
2022/03/09 09:00:04;;;;;;;30.83;10.80;;;;;;;;;;5072358;28;20503;-63
2022/03/09 09:02:31;;;;;;;27.85;10.63;;;;;;;;;;5069555;28;20036;-70
2022/03/09 09:04:57;;;;;;;37.30;11.15;;;;;;;;;;5066418;28;20453;-65
2022/03/09 09:07:24;;;;;;;32.85;10.93;;;;;;;;;;5056562;28;20488;-62
2022/03/09 09:09:50;;;;;;;31.25;11.18;;;;;;;;;;5062086;28;20020;-63
2022/03/09 09:12:16;;;;;;;30.42;11.65;;;;;;;;;;5056047;28;20028;-65
2022/03/09 09:14:42;;;;;;;28.42;11.35;;;;;;;;;;5059438;28;20034;-67
2022/03/09 09:17:08;;;;;;;38.80;11.93;;;;;;;;;;5061777;28;20025;-63
2022/03/09 09:19:35;;;;;;;47.35;24.60;;;;;;;;;;5071495;28;20032;-65
2022/03/09 09:22:01;;;;;;;37.70;14.70;;;;;;;;;;5070803;28;20058;-64
2022/03/09 09:24:28;;;;;;;44.78;19.42;;;;;;;;;;5063364;28;20024;-65
2022/03/09 09:26:54;;;;;;;45.75;16.92;;;;;;;;;;5061011;28;20032;-65
2022/03/09 09:29:23;;;;;;;37.10;15.30;;;;;;;;;;5069546;28;20103;-66
2022/03/09 09:31:50;;;;;;;35.58;12.93;;;;;;;;;;5072422;28;20021;-65
2022/03/09 09:34:16;;;;;;;33.28;11.38;;;;;;;;;;5071272;28;20044;-66
2022/03/09 09:36:45;;;;;;;32.85;10.40;;;;;;;;;;5063270;28;20020;-66
2022/03/09 09:39:15;;;;;;;31.38;10.55;;;;;;;;;;5059352;28;20009;-65
2022/03/09 09:41:45;;;;;;;31.13;10.57;;;;;;;;;;5053841;28;20413;-66
2022/03/09 09:44:12;;;;;;;29.80;10.23;;;;;;;;;;5053499;28;20025;-65
2022/03/09 09:46:42;;;;;;;28.50;9.55;;;;;;;;;;5066652;28;20839;-63
2022/03/09 09:49:12;;;;;;;26.02;9.40;;;;;;;;;;5071285;28;20032;-64
2022/03/09 09:51:40;;;;;;;28.70;9.27;;;;;;;;;;5067422;28;20025;-65
2022/03/09 09:54:06;;;;;;;27.17;8.50;;;;;;;;;;5044767;28;20051;-64
2022/03/09 09:56:35;;;;;;;26.65;9.13;;;;;;;;;;5054356;28;20107;-63
2022/03/09 09:59:01;;;;;;;35.15;9.32;;;;;;;;;;5053938;28;20468;-64
2022/03/09 10:01:28;;;;;;;25.77;8.55;;;;;;;;;;5058832;28;20052;-64
2022/03/09 10:03:54;;;;;;;24.77;8.52;;;;;;;;;;5060887;28;20040;-64
2022/03/09 10:06:20;;;;;;;26.60;8.80;;;;;;;;;;5054298;28;20469;-64
2022/03/09 10:09:06;;;;;;;32.70;9.27;;;;;;;;;;5057997;28;20025;-65
2022/03/09 10:11:52;;;;;;;25.42;8.63;;;;;;;;;;5051275;28;20032;-65
2022/03/09 10:14:38;;;;;;;25.25;7.93;;;;;;;;;;5059256;28;20029;-66
2022/03/09 10:17:06;;;;;;;26.90;10.75;;;;;;;;;;5065537;28;20052;-68
2022/03/09 10:19:35;;;;;;;32.72;12.75;;;;;;;;;;5062494;28;20033;-65
2022/03/09 10:22:21;;;;;;;33.38;14.05;;;;;;;;;;5062467;28;20032;-61
2022/03/09 10:24:47;;;;;;;44.33;14.85;;;;;;;;;;5061656;28;20079;-65
2022/03/09 10:27:13;;;;;;;32.15;13.98;;;;;;;;;;5062997;28;20016;-65
2022/03/09 10:29:39;;;;;;;38.67;15.55;;;;;;;;;;5063455;28;20111;-60
2022/03/09 10:32:05;;;;;;;33.35;16.27;;;;;;;;;;5053221;28;20059;-62
2022/03/09 10:34:35;;;;;;;35.28;14.77;;;;;;;;;;5054427;28;20149;-60
2022/03/09 10:37:02;;;;;;;35.40;15.32;;;;;;;;;;5054399;28;20029;-62
2022/03/09 10:39:33;;;;;;;37.40;15.85;;;;;;;;;;5062515;28;20055;-62
2022/03/09 10:41:59;;;;;;;33.13;16.20;;;;;;;;;;5057261;28;20029;-63
2022/03/09 10:44:44;;;;;;;33.85;15.73;;;;;;;;;;5057701;28;20124;-66
2022/03/09 10:47:10;;;;;;;35.15;15.55;;;;;;;;;;5066020;28;20440;-64
2022/03/09 10:49:36;;;;;;;34.85;16.70;;;;;;;;;;5073719;28;20071;-62
2022/03/09 10:52:02;;;;;;;33.72;15.55;;;;;;;;;;5064330;28;20032;-65
2022/03/09 10:54:32;;;;;;;75.80;31.20;;;;;;;;;;5059269;28;20078;-61
2022/03/09 10:57:06;;;;;;;55.70;28.02;;;;;;;;;;5061385;28;20380;-64
2022/03/09 10:59:44;;;;;;;42.83;20.00;;;;;;;;;;5065798;28;20031;-61
2022/03/09 11:02:10;;;;;;;35.17;17.67;;;;;;;;;;5062207;28;20095;-59
2022/03/09 11:04:37;;;;;;;35.80;17.67;;;;;;;;;;5057125;28;20024;-65
2022/03/09 11:07:04;;;;;;;40.25;17.15;;;;;;;;;;5056528;28;20596;-60
2022/03/09 11:09:30;;;;;;;34.50;16.65;;;;;;;;;;5059908;28;20108;-66
2022/03/09 11:11:57;;;;;;;34.70;16.88;;;;;;;;;;5054067;28;20033;-64
2022/03/09 11:14:26;;;;;;;35.97;17.02;;;;;;;;;;5054542;28;20035;-64
2022/03/09 11:16:53;;;;;;;33.88;16.23;;;;;;;;;;5061074;28;20043;-64
2022/03/09 11:19:20;;;;;;;38.58;15.75;;;;;;;;;;5062734;28;20033;-63
2022/03/09 11:21:47;;;;;;;36.08;15.65;;;;;;;;;;5061934;28;20628;-63
2022/03/09 11:24:14;;;;;;;35.05;16.05;;;;;;;;;;5060426;28;20524;-66
2022/03/09 11:26:44;;;;;;;37.75;18.65;;;;;;;;;;5064683;28;20023;-62
2022/03/09 11:29:12;;;;;;;37.15;18.27;;;;;;;;;;5062681;28;20036;-68
2022/03/09 11:31:51;;;;;;;40.72;19.95;;;;;;;;;;5065183;28;20025;-69
2022/03/09 11:34:31;;;;;;;36.47;17.05;;;;;;;;;;5062465;28;20025;-66
2022/03/09 11:36:59;;;;;;;38.45;17.63;;;;;;;;;;5061310;28;20031;-62
2022/03/09 11:39:25;;;;;;;39.42;19.17;;;;;;;;;;5061082;28;20500;-63
2022/03/09 11:42:11;;;;;;;231.30;134.65;;;;;;;;;;5056877;28;20032;-73
2022/03/09 11:44:39;;;;;;;69.68;41.00;;;;;;;;;;5054786;28;20039;-64
2022/03/09 11:47:07;;;;;;;55.78;29.05;;;;;;;;;;5058169;28;20027;-67
2022/03/09 11:49:33;;;;;;;57.47;25.15;;;;;;;;;;5056140;28;20031;-61
2022/03/09 11:52:05;;;;;;;94.50;32.83;;;;;;;;;;5052923;28;20054;-61
2022/03/09 11:54:42;;;;;;;70.57;42.83;;;;;;;;;;5057779;28;20547;-73
2022/03/09 11:57:08;;;;;;;56.80;27.65;;;;;;;;;;5059952;28;20060;-74
2022/03/09 11:59:34;;;;;;;45.83;25.70;;;;;;;;;;5060673;28;20025;-70
2022/03/09 12:02:02;;;;;;;38.75;22.20;;;;;;;;;;5060815;28;20094;-73
2022/03/09 12:04:45;;;;;;;37.10;18.92;;;;;;;;;;5058287;28;20028;-75
2022/03/09 12:07:11;;;;;;;37.63;19.63;;;;;;;;;;5057268;28;20036;-60
2022/03/09 12:09:57;;;;;;;35.10;18.00;;;;;;;;;;5058047;28;20028;-62
2022/03/09 12:12:23;;;;;;;37.33;18.45;;;;;;;;;;5058760;28;20040;-63
2022/03/09 12:15:00;;;;;;;35.40;17.88;;;;;;;;;;5032105;28;20545;-65
2022/03/09 12:17:38;;;;;;;33.53;16.83;;;;;;;;;;5058705;28;20033;-70
2022/03/09 12:20:21;;;;;;;35.53;17.60;;;;;;;;;;5059813;28;20492;-66
2022/03/09 12:22:59;;;;;;;35.42;17.85;;;;;;;;;;5052858;28;20036;-60
2022/03/09 12:25:41;;;;;;;35.13;17.13;;;;;;;;;;5059023;28;20127;-68
2022/03/09 12:30:56;;;;;;;34.28;17.35;;;;;;;;;;5058032;28;20111;-61
2022/03/09 12:33:26;;;;;;;35.95;16.83;;;;;;;;;;5060191;28;20113;-64
2022/03/09 12:35:52;;;;;;;33.38;16.77;;;;;;;;;;5061596;28;20153;-66
2022/03/09 12:38:19;;;;;;;34.90;16.50;;;;;;;;;;5058398;28;20019;-70
2022/03/09 12:40:45;;;;;;;36.30;17.70;;;;;;;;;;5059275;28;20427;-67
2022/03/09 12:43:13;;;;;;;33.58;17.20;;;;;;;;;;5056466;28;20037;-66
2022/03/09 12:45:52;;;;;;;37.22;17.27;;;;;;;;;;5061729;28;20032;-71
2022/03/09 12:48:22;;;;;;;33.97;16.90;;;;;;;;;;5061653;28;20037;-60
2022/03/09 12:50:49;;;;;;;34.28;17.48;;;;;;;;;;5050168;28;20032;-66
2022/03/09 12:53:21;;;;;;;35.53;17.00;;;;;;;;;;5050698;28;20432;-61
2022/03/09 12:55:48;;;;;;;34.65;16.55;;;;;;;;;;5054740;28;20029;-69
2022/03/09 12:58:23;;;;;;;37.67;17.38;;;;;;;;;;5054086;28;20029;-65
2022/03/09 13:01:03;;;;;;;39.42;19.13;;;;;;;;;;5050525;28;20052;-60
2022/03/09 13:03:29;;;;;;;38.72;18.50;;;;;;;;;;5052083;28;20071;-63
2022/03/09 13:05:55;;;;;;;35.35;17.50;;;;;;;;;;5056793;28;20032;-70
2022/03/09 13:08:21;;;;;;;35.15;17.33;;;;;;;;;;5050643;28;20408;-61
2022/03/09 13:10:52;;;;;;;41.90;16.40;;;;;;;;;;5050752;28;20044;-60
2022/03/09 13:13:18;;;;;;;36.03;16.35;;;;;;;;;;5034440;28;20028;-75
2022/03/09 13:15:50;;;;;;;37.78;16.38;;;;;;;;;;5048979;28;20067;-60
2022/03/09 13:18:36;;;;;;;33.05;16.23;;;;;;;;;;5053320;28;20044;-66
2022/03/09 13:21:03;;;;;;;441.92;249.75;;;;;;;;;;5061093;28;20029;-71
2022/03/09 13:23:35;;;;;;;452.95;300.63;;;;;;;;;;5056369;28;20070;-64
2022/03/09 13:26:14;;;;;;;196.35;115.30;;;;;;;;;;5031405;28;20024;-63
2022/03/09 13:28:41;;;;;;;115.03;68.40;;;;;;;;;;5055618;28;20028;-64
2022/03/09 13:31:08;;;;;;;73.80;41.67;;;;;;;;;;5054667;28;20086;-62
2022/03/09 13:33:34;;;;;;;47.72;27.02;;;;;;;;;;5034055;28;20028;-65
2022/03/09 13:36:00;;;;;;;43.42;20.23;;;;;;;;;;5054101;28;20024;-66
2022/03/09 13:38:29;;;;;;;64.30;37.53;;;;;;;;;;5048309;28;20037;-67
2022/03/09 13:41:06;;;;;;;49.67;27.77;;;;;;;;;;5051885;28;20090;-61
2022/03/09 13:43:36;;;;;;;50.20;29.40;;;;;;;;;;5053048;28;20036;-60
2022/03/09 13:46:16;;;;;;;49.83;27.05;;;;;;;;;;5054972;28;20039;-66
2022/03/09 13:48:42;;;;;;;61.67;35.92;;;;;;;;;;5050948;28;20044;-63
2022/03/09 13:51:08;;;;;;;52.63;26.33;;;;;;;;;;5050548;28;20120;-66
2022/03/09 13:53:38;;;;;;;53.00;22.90;;;;;;;;;;5049338;28;20610;-71
2022/03/09 13:56:16;;;;;;;53.75;22.17;;;;;;;;;;5052580;28;20059;-67
2022/03/09 13:58:42;;;;;;;107.75;33.08;;;;;;;;;;5059190;28;20056;-60
2022/03/09 14:01:12;;;;;;;46.85;21.02;;;;;;;;;;5054677;28;20040;-65
2022/03/09 14:03:40;;;;;;;45.88;19.75;;;;;;;;;;5051232;28;20044;-62
2022/03/09 14:06:13;;;;;;;71.60;24.92;;;;;;;;;;5050966;28;20123;-69
2022/03/09 14:08:39;;;;;;;88.75;36.45;;;;;;;;;;5049064;28;20509;-64
2022/03/09 14:11:08;;;;;;;110.80;63.70;;;;;;;;;;5038542;28;20095;-68
2022/03/09 14:13:34;;;;;;;72.70;40.55;;;;;;;;;;5055550;28;20494;-64
2022/03/09 14:16:01;;;;;;;65.55;33.33;;;;;;;;;;5051866;28;20029;-64
2022/03/09 14:18:27;;;;;;;75.07;36.75;;;;;;;;;;5057981;28;20041;-68
2022/03/09 14:20:53;;;;;;;56.08;27.98;;;;;;;;;;5055832;28;20071;-66
2022/03/09 14:23:19;;;;;;;57.97;25.95;;;;;;;;;;5047291;28;20040;-69
2022/03/09 14:25:45;;;;;;;52.00;23.70;;;;;;;;;;5054663;28;20027;-66
2022/03/09 14:28:11;;;;;;;72.22;31.70;;;;;;;;;;5048921;28;20112;-72
2022/03/09 14:30:37;;;;;;;65.35;28.10;;;;;;;;;;5060824;28;20052;-74